sensor_id;sensor_type;location;lat;lon;timestamp;temperature;humidity
14401;DHT22;7285;50.894;5.462;2022-12-19T00:01:09;3.00;1.00
14401;DHT22;7285;50.894;5.462;2022-12-19T00:03:43;3.10;99.90
14401;DHT22;7285;50.894;5.462;2022-12-19T00:06:10;3.10;1.00
14401;DHT22;7285;50.894;5.462;2022-12-19T00:08:37;3.10;1.00
14401;DHT22;7285;50.894;5.462;2022-12-19T00:11:07;3.10;1.00
14401;DHT22;7285;50.894;5.462;2022-12-19T00:13:35;3.20;1.00
14401;DHT22;7285;50.894;5.462;2022-12-19T00:16:03;3.30;99.90
14401;DHT22;7285;50.894;5.462;2022-12-19T00:18:31;3.30;1.00
14401;DHT22;7285;50.894;5.462;2022-12-19T00:21:01;3.30;1.00
14401;DHT22;7285;50.894;5.462;2022-12-19T00:23:31;3.40;1.00
14401;DHT22;7285;50.894;5.462;2022-12-19T00:26:06;3.40;1.00
14401;DHT22;7285;50.894;5.462;2022-12-19T00:28:33;3.50;1.00
14401;DHT22;7285;50.894;5.462;2022-12-19T00:31:00;3.50;1.00
14401;DHT22;7285;50.894;5.462;2022-12-19T00:33:28;3.60;1.00
14401;DHT22;7285;50.894;5.462;2022-12-19T00:35:57;3.70;1.00
14401;DHT22;7285;50.894;5.462;2022-12-19T00:38:32;3.70;1.00
14401;DHT22;7285;50.894;5.462;2022-12-19T00:41:06;3.80;1.00
14401;DHT22;7285;50.894;5.462;2022-12-19T00:43:36;3.80;99.90
14401;DHT22;7285;50.894;5.462;2022-12-19T00:46:06;3.90;99.90
14401;DHT22;7285;50.894;5.462;2022-12-19T00:48:34;3.90;99.90
14401;DHT22;7285;50.894;5.462;2022-12-19T00:51:02;4.00;99.90
14401;DHT22;7285;50.894;5.462;2022-12-19T00:53:31;4.00;99.90
14401;DHT22;7285;50.894;5.462;2022-12-19T00:56:01;4.00;99.90
14401;DHT22;7285;50.894;5.462;2022-12-19T00:58:28;4.00;99.90
14401;DHT22;7285;50.894;5.462;2022-12-19T01:00:55;4.10;93.80
14401;DHT22;7285;50.894;5.462;2022-12-19T01:03:23;4.20;1.00
14401;DHT22;7285;50.894;5.462;2022-12-19T01:05:50;4.20;1.00
14401;DHT22;7285;50.894;5.462;2022-12-19T01:08:18;4.30;1.00
14401;DHT22;7285;50.894;5.462;2022-12-19T01:10:47;4.40;1.00
14401;DHT22;7285;50.894;5.462;2022-12-19T01:13:15;4.50;1.00
14401;DHT22;7285;50.894;5.462;2022-12-19T01:15:41;4.40;1.00
14401;DHT22;7285;50.894;5.462;2022-12-19T01:18:10;4.50;1.00
14401;DHT22;7285;50.894;5.462;2022-12-19T01:20:38;4.50;1.00
14401;DHT22;7285;50.894;5.462;2022-12-19T01:23:06;4.50;1.00
14401;DHT22;7285;50.894;5.462;2022-12-19T01:25:33;4.50;1.00
14401;DHT22;7285;50.894;5.462;2022-12-19T01:28:02;4.60;1.00
14401;DHT22;7285;50.894;5.462;2022-12-19T01:30:29;4.50;1.00
14401;DHT22;7285;50.894;5.462;2022-12-19T01:32:57;4.70;1.00
14401;DHT22;7285;50.894;5.462;2022-12-19T01:35:24;4.70;1.00
14401;DHT22;7285;50.894;5.462;2022-12-19T01:37:52;4.90;1.00
14401;DHT22;7285;50.894;5.462;2022-12-19T01:40:20;4.80;1.00
14401;DHT22;7285;50.894;5.462;2022-12-19T01:42:48;4.90;1.00
14401;DHT22;7285;50.894;5.462;2022-12-19T01:45:28;5.00;1.00
14401;DHT22;7285;50.894;5.462;2022-12-19T01:48:05;5.00;1.00
14401;DHT22;7285;50.894;5.462;2022-12-19T01:50:36;5.10;1.00
14401;DHT22;7285;50.894;5.462;2022-12-19T01:53:06;5.10;1.00
14401;DHT22;7285;50.894;5.462;2022-12-19T01:55:35;5.10;1.00
14401;DHT22;7285;50.894;5.462;2022-12-19T01:58:02;5.20;1.00
14401;DHT22;7285;50.894;5.462;2022-12-19T02:00:31;5.30;1.00
14401;DHT22;7285;50.894;5.462;2022-12-19T02:03:01;5.40;1.00
14401;DHT22;7285;50.894;5.462;2022-12-19T02:05:31;5.40;1.00
14401;DHT22;7285;50.894;5.462;2022-12-19T02:07:59;5.40;1.00
14401;DHT22;7285;50.894;5.462;2022-12-19T02:10:26;5.40;99.90
14401;DHT22;7285;50.894;5.462;2022-12-19T02:12:54;5.30;1.00
14401;DHT22;7285;50.894;5.462;2022-12-19T02:15:21;5.20;1.00
14401;DHT22;7285;50.894;5.462;2022-12-19T02:17:59;5.20;1.00
14401;DHT22;7285;50.894;5.462;2022-12-19T02:20:56;5.30;95.40
14401;DHT22;7285;50.894;5.462;2022-12-19T02:26:41;5.40;1.00
14401;DHT22;7285;50.894;5.462;2022-12-19T02:29:29;5.30;1.00
14401;DHT22;7285;50.894;5.462;2022-12-19T02:32:05;5.40;99.90
14401;DHT22;7285;50.894;5.462;2022-12-19T02:34:36;5.50;99.90
14401;DHT22;7285;50.894;5.462;2022-12-19T02:37:09;5.40;1.00
14401;DHT22;7285;50.894;5.462;2022-12-19T02:39:42;5.40;1.00
14401;DHT22;7285;50.894;5.462;2022-12-19T02:42:14;5.40;99.90
14401;DHT22;7285;50.894;5.462;2022-12-19T02:44:46;5.50;1.00
14401;DHT22;7285;50.894;5.462;2022-12-19T02:47:16;5.50;1.00
14401;DHT22;7285;50.894;5.462;2022-12-19T02:49:44;5.40;1.00
14401;DHT22;7285;50.894;5.462;2022-12-19T02:52:40;5.40;1.00
14401;DHT22;7285;50.894;5.462;2022-12-19T02:55:02;5.40;1.00
14401;DHT22;7285;50.894;5.462;2022-12-19T02:57:34;5.40;99.90
14401;DHT22;7285;50.894;5.462;2022-12-19T03:00:06;5.40;1.00
14401;DHT22;7285;50.894;5.462;2022-12-19T03:02:44;5.50;15.30
14401;DHT22;7285;50.894;5.462;2022-12-19T03:05:16;5.40;99.90
14401;DHT22;7285;50.894;5.462;2022-12-19T03:07:57;5.40;99.90
14401;DHT22;7285;50.894;5.462;2022-12-19T03:10:32;5.40;1.00
14401;DHT22;7285;50.894;5.462;2022-12-19T03:13:06;5.50;1.00
14401;DHT22;7285;50.894;5.462;2022-12-19T03:15:34;5.40;1.00
14401;DHT22;7285;50.894;5.462;2022-12-19T03:18:04;5.50;9.00
14401;DHT22;7285;50.894;5.462;2022-12-19T03:20:38;5.50;1.00
14401;DHT22;7285;50.894;5.462;2022-12-19T03:23:08;5.50;99.90
14401;DHT22;7285;50.894;5.462;2022-12-19T03:25:35;5.60;1.00
14401;DHT22;7285;50.894;5.462;2022-12-19T03:28:07;5.70;1.00
14401;DHT22;7285;50.894;5.462;2022-12-19T03:30:39;5.60;1.00
14401;DHT22;7285;50.894;5.462;2022-12-19T03:33:09;5.60;1.00
14401;DHT22;7285;50.894;5.462;2022-12-19T03:35:38;5.60;1.00
14401;DHT22;7285;50.894;5.462;2022-12-19T03:38:08;5.70;1.00
14401;DHT22;7285;50.894;5.462;2022-12-19T03:40:39;5.70;1.00
14401;DHT22;7285;50.894;5.462;2022-12-19T03:43:09;5.70;1.00
14401;DHT22;7285;50.894;5.462;2022-12-19T03:45:43;5.70;47.20
14401;DHT22;7285;50.894;5.462;2022-12-19T03:48:32;5.80;72.50
14401;DHT22;7285;50.894;5.462;2022-12-19T03:51:16;5.80;99.90
14401;DHT22;7285;50.894;5.462;2022-12-19T03:53:57;5.80;99.90
14401;DHT22;7285;50.894;5.462;2022-12-19T03:56:32;5.80;99.90
14401;DHT22;7285;50.894;5.462;2022-12-19T03:59:07;5.90;1.00
14401;DHT22;7285;50.894;5.462;2022-12-19T04:01:35;6.00;99.90
14401;DHT22;7285;50.894;5.462;2022-12-19T04:04:10;5.90;99.90
14401;DHT22;7285;50.894;5.462;2022-12-19T04:06:38;5.90;99.90
14401;DHT22;7285;50.894;5.462;2022-12-19T04:09:08;5.90;99.90
14401;DHT22;7285;50.894;5.462;2022-12-19T04:11:39;6.00;1.00
14401;DHT22;7285;50.894;5.462;2022-12-19T04:14:12;6.00;1.00
14401;DHT22;7285;50.894;5.462;2022-12-19T04:16:44;6.10;1.00
14401;DHT22;7285;50.894;5.462;2022-12-19T04:19:19;6.00;1.00
14401;DHT22;7285;50.894;5.462;2022-12-19T04:21:51;6.10;1.00
14401;DHT22;7285;50.894;5.462;2022-12-19T04:24:28;6.10;1.00
14401;DHT22;7285;50.894;5.462;2022-12-19T04:26:57;6.10;1.00
14401;DHT22;7285;50.894;5.462;2022-12-19T04:29:26;6.20;1.00
14401;DHT22;7285;50.894;5.462;2022-12-19T04:31:54;6.10;1.00
14401;DHT22;7285;50.894;5.462;2022-12-19T04:34:23;6.10;1.00
14401;DHT22;7285;50.894;5.462;2022-12-19T04:36:50;6.20;1.00
14401;DHT22;7285;50.894;5.462;2022-12-19T04:39:17;6.20;17.70
14401;DHT22;7285;50.894;5.462;2022-12-19T04:41:44;6.30;99.90
14401;DHT22;7285;50.894;5.462;2022-12-19T04:44:11;6.40;99.90
14401;DHT22;7285;50.894;5.462;2022-12-19T04:46:38;6.30;46.60
14401;DHT22;7285;50.894;5.462;2022-12-19T04:49:05;6.30;99.90
14401;DHT22;7285;50.894;5.462;2022-12-19T04:51:33;6.30;99.90
14401;DHT22;7285;50.894;5.462;2022-12-19T04:54:00;6.50;99.90
14401;DHT22;7285;50.894;5.462;2022-12-19T04:56:29;6.50;99.90
14401;DHT22;7285;50.894;5.462;2022-12-19T04:58:56;6.50;99.90
14401;DHT22;7285;50.894;5.462;2022-12-19T05:01:24;6.50;99.90
14401;DHT22;7285;50.894;5.462;2022-12-19T05:03:51;6.70;95.80
14401;DHT22;7285;50.894;5.462;2022-12-19T05:06:18;6.70;1.00
14401;DHT22;7285;50.894;5.462;2022-12-19T05:08:47;6.60;1.00
14401;DHT22;7285;50.894;5.462;2022-12-19T05:11:15;6.60;1.00
14401;DHT22;7285;50.894;5.462;2022-12-19T05:13:42;6.80;99.90
14401;DHT22;7285;50.894;5.462;2022-12-19T05:16:10;6.70;99.90
14401;DHT22;7285;50.894;5.462;2022-12-19T05:18:38;6.80;99.90
14401;DHT22;7285;50.894;5.462;2022-12-19T05:21:06;6.80;99.90
14401;DHT22;7285;50.894;5.462;2022-12-19T05:23:33;6.70;58.40
14401;DHT22;7285;50.894;5.462;2022-12-19T05:26:04;6.70;99.90
14401;DHT22;7285;50.894;5.462;2022-12-19T05:28:31;6.80;99.90
14401;DHT22;7285;50.894;5.462;2022-12-19T05:31:06;6.80;1.00
14401;DHT22;7285;50.894;5.462;2022-12-19T05:33:33;6.70;1.00
14401;DHT22;7285;50.894;5.462;2022-12-19T05:36:00;6.80;1.00
14401;DHT22;7285;50.894;5.462;2022-12-19T05:38:28;6.90;99.90
14401;DHT22;7285;50.894;5.462;2022-12-19T05:40:55;6.90;1.00
14401;DHT22;7285;50.894;5.462;2022-12-19T05:43:24;7.00;1.00
14401;DHT22;7285;50.894;5.462;2022-12-19T05:45:51;7.00;1.00
14401;DHT22;7285;50.894;5.462;2022-12-19T05:48:18;6.90;1.00
14401;DHT22;7285;50.894;5.462;2022-12-19T05:50:48;7.00;1.00
14401;DHT22;7285;50.894;5.462;2022-12-19T05:53:15;7.00;27.70
14401;DHT22;7285;50.894;5.462;2022-12-19T05:55:43;7.00;1.00
14401;DHT22;7285;50.894;5.462;2022-12-19T05:58:10;7.10;99.90
14401;DHT22;7285;50.894;5.462;2022-12-19T06:00:38;7.10;1.00
14401;DHT22;7285;50.894;5.462;2022-12-19T06:03:05;7.20;1.00
14401;DHT22;7285;50.894;5.462;2022-12-19T06:05:36;7.20;1.00
14401;DHT22;7285;50.894;5.462;2022-12-19T06:08:03;7.20;1.00
14401;DHT22;7285;50.894;5.462;2022-12-19T06:10:30;7.20;1.00
14401;DHT22;7285;50.894;5.462;2022-12-19T06:12:57;7.20;1.00
14401;DHT22;7285;50.894;5.462;2022-12-19T06:15:24;7.20;1.00
14401;DHT22;7285;50.894;5.462;2022-12-19T06:17:53;7.10;1.00
14401;DHT22;7285;50.894;5.462;2022-12-19T06:20:20;7.20;1.00
14401;DHT22;7285;50.894;5.462;2022-12-19T06:22:47;7.30;1.00
14401;DHT22;7285;50.894;5.462;2022-12-19T06:25:15;7.20;1.00
14401;DHT22;7285;50.894;5.462;2022-12-19T06:27:42;7.20;1.00
14401;DHT22;7285;50.894;5.462;2022-12-19T06:30:10;7.30;99.90
14401;DHT22;7285;50.894;5.462;2022-12-19T06:32:37;7.20;1.00
14401;DHT22;7285;50.894;5.462;2022-12-19T06:35:06;7.30;1.00
14401;DHT22;7285;50.894;5.462;2022-12-19T06:37:33;7.20;1.00
14401;DHT22;7285;50.894;5.462;2022-12-19T06:40:00;7.30;1.00
14401;DHT22;7285;50.894;5.462;2022-12-19T06:42:27;7.30;99.90
14401;DHT22;7285;50.894;5.462;2022-12-19T06:44:54;7.30;99.90
14401;DHT22;7285;50.894;5.462;2022-12-19T06:47:22;7.30;96.80
14401;DHT22;7285;50.894;5.462;2022-12-19T06:49:49;7.30;1.00
14401;DHT22;7285;50.894;5.462;2022-12-19T06:52:17;7.40;1.00
14401;DHT22;7285;50.894;5.462;2022-12-19T06:54:44;7.40;99.90
14401;DHT22;7285;50.894;5.462;2022-12-19T06:57:11;7.40;1.00
14401;DHT22;7285;50.894;5.462;2022-12-19T06:59:38;7.40;1.00
14401;DHT22;7285;50.894;5.462;2022-12-19T07:02:14;7.40;50.60
14401;DHT22;7285;50.894;5.462;2022-12-19T07:04:45;7.30;1.00
14401;DHT22;7285;50.894;5.462;2022-12-19T07:07:12;7.40;1.00
14401;DHT22;7285;50.894;5.462;2022-12-19T07:09:41;7.30;1.00
14401;DHT22;7285;50.894;5.462;2022-12-19T07:12:08;7.30;1.00
14401;DHT22;7285;50.894;5.462;2022-12-19T07:14:35;7.30;1.00
14401;DHT22;7285;50.894;5.462;2022-12-19T07:17:03;7.30;1.00
14401;DHT22;7285;50.894;5.462;2022-12-19T07:19:33;7.40;99.90
14401;DHT22;7285;50.894;5.462;2022-12-19T07:22:02;7.50;1.00
14401;DHT22;7285;50.894;5.462;2022-12-19T07:24:30;7.40;1.00
14401;DHT22;7285;50.894;5.462;2022-12-19T07:26:58;7.40;1.00
14401;DHT22;7285;50.894;5.462;2022-12-19T07:29:26;7.40;1.00
14401;DHT22;7285;50.894;5.462;2022-12-19T07:31:53;7.50;63.80
14401;DHT22;7285;50.894;5.462;2022-12-19T07:34:22;7.50;1.00
14401;DHT22;7285;50.894;5.462;2022-12-19T07:36:49;7.50;1.00
14401;DHT22;7285;50.894;5.462;2022-12-19T07:39:16;7.50;1.00
14401;DHT22;7285;50.894;5.462;2022-12-19T07:41:43;7.50;1.00
14401;DHT22;7285;50.894;5.462;2022-12-19T07:44:12;7.50;1.00
14401;DHT22;7285;50.894;5.462;2022-12-19T07:46:41;7.50;1.00
14401;DHT22;7285;50.894;5.462;2022-12-19T07:49:08;7.50;1.00
14401;DHT22;7285;50.894;5.462;2022-12-19T07:51:35;7.50;1.00
14401;DHT22;7285;50.894;5.462;2022-12-19T07:54:02;7.60;99.90
14401;DHT22;7285;50.894;5.462;2022-12-19T07:56:29;7.70;61.40
14401;DHT22;7285;50.894;5.462;2022-12-19T07:58:56;7.60;1.00
14401;DHT22;7285;50.894;5.462;2022-12-19T08:01:24;7.70;1.00
14401;DHT22;7285;50.894;5.462;2022-12-19T08:03:53;7.70;1.00
14401;DHT22;7285;50.894;5.462;2022-12-19T08:06:20;7.70;1.00
14401;DHT22;7285;50.894;5.462;2022-12-19T08:08:48;7.70;1.00
14401;DHT22;7285;50.894;5.462;2022-12-19T08:11:16;7.70;99.90
14401;DHT22;7285;50.894;5.462;2022-12-19T08:13:44;7.80;99.90
14401;DHT22;7285;50.894;5.462;2022-12-19T08:16:11;7.90;73.60
14401;DHT22;7285;50.894;5.462;2022-12-19T08:18:40;7.80;1.00
14401;DHT22;7285;50.894;5.462;2022-12-19T08:21:07;7.80;35.90
14401;DHT22;7285;50.894;5.462;2022-12-19T08:23:34;7.80;1.00
14401;DHT22;7285;50.894;5.462;2022-12-19T08:26:03;7.90;1.00
14401;DHT22;7285;50.894;5.462;2022-12-19T08:28:32;7.90;1.00
14401;DHT22;7285;50.894;5.462;2022-12-19T08:31:04;7.90;1.00
14401;DHT22;7285;50.894;5.462;2022-12-19T08:33:32;7.90;1.00
14401;DHT22;7285;50.894;5.462;2022-12-19T08:36:03;8.00;1.00
14401;DHT22;7285;50.894;5.462;2022-12-19T08:38:30;8.10;99.90
14401;DHT22;7285;50.894;5.462;2022-12-19T08:40:58;8.10;99.90
14401;DHT22;7285;50.894;5.462;2022-12-19T08:43:25;8.10;99.90
14401;DHT22;7285;50.894;5.462;2022-12-19T08:45:52;8.10;90.30
14401;DHT22;7285;50.894;5.462;2022-12-19T08:48:19;8.30;1.00
14401;DHT22;7285;50.894;5.462;2022-12-19T08:50:50;8.20;1.00
14401;DHT22;7285;50.894;5.462;2022-12-19T08:53:20;8.30;1.00
14401;DHT22;7285;50.894;5.462;2022-12-19T08:55:47;8.40;1.00
14401;DHT22;7285;50.894;5.462;2022-12-19T08:58:15;8.50;99.90
14401;DHT22;7285;50.894;5.462;2022-12-19T09:00:42;8.50;99.90
14401;DHT22;7285;50.894;5.462;2022-12-19T09:03:09;8.60;89.60
14401;DHT22;7285;50.894;5.462;2022-12-19T09:05:36;8.60;76.30
14401;DHT22;7285;50.894;5.462;2022-12-19T09:08:04;8.60;1.00
14401;DHT22;7285;50.894;5.462;2022-12-19T09:10:35;8.70;1.00
14401;DHT22;7285;50.894;5.462;2022-12-19T09:13:02;8.60;1.00
14401;DHT22;7285;50.894;5.462;2022-12-19T09:15:29;8.60;1.00
14401;DHT22;7285;50.894;5.462;2022-12-19T09:17:56;8.60;1.00
14401;DHT22;7285;50.894;5.462;2022-12-19T09:20:23;8.60;1.00
14401;DHT22;7285;50.894;5.462;2022-12-19T09:22:50;8.70;1.00
14401;DHT22;7285;50.894;5.462;2022-12-19T09:25:17;8.70;1.00
14401;DHT22;7285;50.894;5.462;2022-12-19T09:27:46;8.60;14.60
14401;DHT22;7285;50.894;5.462;2022-12-19T09:30:13;8.70;1.00
14401;DHT22;7285;50.894;5.462;2022-12-19T09:32:40;8.80;1.00
14401;DHT22;7285;50.894;5.462;2022-12-19T09:35:07;8.80;1.00
14401;DHT22;7285;50.894;5.462;2022-12-19T09:37:34;8.70;1.00
14401;DHT22;7285;50.894;5.462;2022-12-19T09:40:01;8.70;1.00
14401;DHT22;7285;50.894;5.462;2022-12-19T09:42:47;8.80;1.00
14401;DHT22;7285;50.894;5.462;2022-12-19T09:45:36;8.90;1.00
14401;DHT22;7285;50.894;5.462;2022-12-19T09:48:10;8.90;1.00
14401;DHT22;7285;50.894;5.462;2022-12-19T09:50:45;9.00;1.00
14401;DHT22;7285;50.894;5.462;2022-12-19T09:53:20;9.10;1.00
14401;DHT22;7285;50.894;5.462;2022-12-19T09:55:51;9.20;1.00
14401;DHT22;7285;50.894;5.462;2022-12-19T09:58:31;9.30;99.90
14401;DHT22;7285;50.894;5.462;2022-12-19T10:01:06;9.30;99.90
14401;DHT22;7285;50.894;5.462;2022-12-19T10:03:35;9.30;99.90
14401;DHT22;7285;50.894;5.462;2022-12-19T10:06:10;9.30;99.90
14401;DHT22;7285;50.894;5.462;2022-12-19T10:08:40;9.30;99.90
14401;DHT22;7285;50.894;5.462;2022-12-19T10:11:14;9.30;99.90
14401;DHT22;7285;50.894;5.462;2022-12-19T10:13:59;9.30;99.90
14401;DHT22;7285;50.894;5.462;2022-12-19T10:16:35;9.30;99.90
14401;DHT22;7285;50.894;5.462;2022-12-19T10:19:09;9.30;99.90
14401;DHT22;7285;50.894;5.462;2022-12-19T10:21:43;9.30;99.90
14401;DHT22;7285;50.894;5.462;2022-12-19T10:24:45;9.30;99.90
14401;DHT22;7285;50.894;5.462;2022-12-19T10:27:22;9.30;99.90
14401;DHT22;7285;50.894;5.462;2022-12-19T10:30:01;9.40;99.90
14401;DHT22;7285;50.894;5.462;2022-12-19T10:32:35;9.40;99.90
14401;DHT22;7285;50.894;5.462;2022-12-19T10:35:12;9.40;99.90
14401;DHT22;7285;50.894;5.462;2022-12-19T10:37:46;9.40;99.90
14401;DHT22;7285;50.894;5.462;2022-12-19T10:40:21;9.40;99.90
14401;DHT22;7285;50.894;5.462;2022-12-19T10:42:52;9.40;50.40
14401;DHT22;7285;50.894;5.462;2022-12-19T10:45:31;9.50;1.00
14401;DHT22;7285;50.894;5.462;2022-12-19T10:48:00;9.60;1.00
14401;DHT22;7285;50.894;5.462;2022-12-19T10:50:28;9.70;1.00
14401;DHT22;7285;50.894;5.462;2022-12-19T10:53:05;9.80;1.00
14401;DHT22;7285;50.894;5.462;2022-12-19T10:55:38;9.80;1.00
14401;DHT22;7285;50.894;5.462;2022-12-19T10:58:19;9.80;1.00
14401;DHT22;7285;50.894;5.462;2022-12-19T11:01:05;9.80;1.00
14401;DHT22;7285;50.894;5.462;2022-12-19T11:03:37;10.00;1.00
14401;DHT22;7285;50.894;5.462;2022-12-19T11:06:05;10.00;1.00
14401;DHT22;7285;50.894;5.462;2022-12-19T11:08:33;10.00;1.00
14401;DHT22;7285;50.894;5.462;2022-12-19T11:11:11;10.00;1.00
14401;DHT22;7285;50.894;5.462;2022-12-19T11:13:41;10.00;1.00
14401;DHT22;7285;50.894;5.462;2022-12-19T11:16:10;10.00;1.00
14401;DHT22;7285;50.894;5.462;2022-12-19T11:18:39;10.00;1.00
14401;DHT22;7285;50.894;5.462;2022-12-19T11:21:17;10.10;1.00
14401;DHT22;7285;50.894;5.462;2022-12-19T11:23:49;10.10;1.00
14401;DHT22;7285;50.894;5.462;2022-12-19T11:26:32;10.10;1.00
14401;DHT22;7285;50.894;5.462;2022-12-19T11:29:04;10.20;1.00
14401;DHT22;7285;50.894;5.462;2022-12-19T11:31:43;10.20;1.00
14401;DHT22;7285;50.894;5.462;2022-12-19T11:34:14;10.30;1.00
14401;DHT22;7285;50.894;5.462;2022-12-19T11:36:46;10.40;1.00
14401;DHT22;7285;50.894;5.462;2022-12-19T11:39:20;10.40;1.00
14401;DHT22;7285;50.894;5.462;2022-12-19T11:41:53;10.50;1.00
14401;DHT22;7285;50.894;5.462;2022-12-19T11:44:26;10.60;99.90
14401;DHT22;7285;50.894;5.462;2022-12-19T11:47:04;10.80;99.90
14401;DHT22;7285;50.894;5.462;2022-12-19T11:49:40;10.80;99.90
14401;DHT22;7285;50.894;5.462;2022-12-19T11:52:17;10.90;99.90
14401;DHT22;7285;50.894;5.462;2022-12-19T11:54:54;11.00;99.90
14401;DHT22;7285;50.894;5.462;2022-12-19T11:57:22;11.00;99.90
14401;DHT22;7285;50.894;5.462;2022-12-19T11:59:51;11.30;99.90
14401;DHT22;7285;50.894;5.462;2022-12-19T12:05:42;11.90;99.90
14401;DHT22;7285;50.894;5.462;2022-12-19T12:08:30;12.00;99.90
14401;DHT22;7285;50.894;5.462;2022-12-19T12:11:01;12.20;99.90
14401;DHT22;7285;50.894;5.462;2022-12-19T12:13:36;12.50;99.90
14401;DHT22;7285;50.894;5.462;2022-12-19T12:16:08;12.50;93.60
14401;DHT22;7285;50.894;5.462;2022-12-19T12:18:52;12.50;60.80
14401;DHT22;7285;50.894;5.462;2022-12-19T12:21:23;13.20;73.10
14401;DHT22;7285;50.894;5.462;2022-12-19T12:24:04;12.90;23.20
14401;DHT22;7285;50.894;5.462;2022-12-19T12:26:35;12.60;1.00
14401;DHT22;7285;50.894;5.462;2022-12-19T12:29:10;13.00;1.00
14401;DHT22;7285;50.894;5.462;2022-12-19T12:32:02;12.80;1.00
14401;DHT22;7285;50.894;5.462;2022-12-19T12:34:57;12.80;1.00
14401;DHT22;7285;50.894;5.462;2022-12-19T12:37:41;12.50;1.00
14401;DHT22;7285;50.894;5.462;2022-12-19T12:40:25;12.50;1.00
14401;DHT22;7285;50.894;5.462;2022-12-19T12:43:03;12.50;1.00
14401;DHT22;7285;50.894;5.462;2022-12-19T12:45:35;12.40;1.00
14401;DHT22;7285;50.894;5.462;2022-12-19T12:48:13;12.30;1.00
14401;DHT22;7285;50.894;5.462;2022-12-19T12:50:46;12.30;1.00
14401;DHT22;7285;50.894;5.462;2022-12-19T12:53:18;12.40;1.00
14401;DHT22;7285;50.894;5.462;2022-12-19T12:55:46;12.40;1.00
14401;DHT22;7285;50.894;5.462;2022-12-19T12:58:43;12.30;1.00
14401;DHT22;7285;50.894;5.462;2022-12-19T13:01:15;12.20;1.00
14401;DHT22;7285;50.894;5.462;2022-12-19T13:03:51;12.20;1.00
14401;DHT22;7285;50.894;5.462;2022-12-19T13:06:25;12.00;1.00
14401;DHT22;7285;50.894;5.462;2022-12-19T13:09:02;11.90;1.00
14401;DHT22;7285;50.894;5.462;2022-12-19T13:11:38;11.70;1.00
14401;DHT22;7285;50.894;5.462;2022-12-19T13:14:46;11.60;1.00
14401;DHT22;7285;50.894;5.462;2022-12-19T13:17:18;11.50;1.00
14401;DHT22;7285;50.894;5.462;2022-12-19T13:19:54;11.50;1.00
14401;DHT22;7285;50.894;5.462;2022-12-19T13:22:36;11.40;1.00
14401;DHT22;7285;50.894;5.462;2022-12-19T13:25:45;11.30;1.00
14401;DHT22;7285;50.894;5.462;2022-12-19T13:28:40;11.40;1.00
14401;DHT22;7285;50.894;5.462;2022-12-19T13:31:19;11.30;1.00
14401;DHT22;7285;50.894;5.462;2022-12-19T13:36:47;11.40;1.00
14401;DHT22;7285;50.894;5.462;2022-12-19T13:39:27;11.40;1.00
14401;DHT22;7285;50.894;5.462;2022-12-19T13:42:14;11.20;1.00
14401;DHT22;7285;50.894;5.462;2022-12-19T13:45:03;11.20;1.00
14401;DHT22;7285;50.894;5.462;2022-12-19T13:47:34;11.20;1.00
14401;DHT22;7285;50.894;5.462;2022-12-19T13:50:03;11.20;1.00
14401;DHT22;7285;50.894;5.462;2022-12-19T13:52:31;11.10;1.00
14401;DHT22;7285;50.894;5.462;2022-12-19T13:54:58;11.10;3.50
14401;DHT22;7285;50.894;5.462;2022-12-19T13:57:30;11.00;1.00
14401;DHT22;7285;50.894;5.462;2022-12-19T13:59:59;11.00;1.00
14401;DHT22;7285;50.894;5.462;2022-12-19T14:02:30;11.00;1.00
14401;DHT22;7285;50.894;5.462;2022-12-19T14:04:58;10.90;1.00
14401;DHT22;7285;50.894;5.462;2022-12-19T14:07:37;10.90;1.00
14401;DHT22;7285;50.894;5.462;2022-12-19T14:10:07;10.80;1.00
14401;DHT22;7285;50.894;5.462;2022-12-19T14:12:43;10.80;1.00
14401;DHT22;7285;50.894;5.462;2022-12-19T14:15:31;10.70;31.60
14401;DHT22;7285;50.894;5.462;2022-12-19T14:17:59;10.70;26.30
14401;DHT22;7285;50.894;5.462;2022-12-19T14:20:28;10.80;1.00
14401;DHT22;7285;50.894;5.462;2022-12-19T14:22:56;10.80;3.90
14401;DHT22;7285;50.894;5.462;2022-12-19T14:25:35;10.70;3.60
14401;DHT22;7285;50.894;5.462;2022-12-19T14:28:06;10.70;9.80
14401;DHT22;7285;50.894;5.462;2022-12-19T14:30:36;10.70;15.30
14401;DHT22;7285;50.894;5.462;2022-12-19T14:33:08;10.60;45.80
14401;DHT22;7285;50.894;5.462;2022-12-19T14:35:42;10.60;25.70
14401;DHT22;7285;50.894;5.462;2022-12-19T14:38:16;10.60;37.50
14401;DHT22;7285;50.894;5.462;2022-12-19T14:40:43;10.60;31.70
14401;DHT22;7285;50.894;5.462;2022-12-19T14:43:16;10.50;32.30
14401;DHT22;7285;50.894;5.462;2022-12-19T14:46:27;10.50;17.00
14401;DHT22;7285;50.894;5.462;2022-12-19T14:48:56;10.50;13.00
14401;DHT22;7285;50.894;5.462;2022-12-19T14:51:26;10.50;18.10
14401;DHT22;7285;50.894;5.462;2022-12-19T14:54:05;10.40;36.60
14401;DHT22;7285;50.894;5.462;2022-12-19T14:56:41;10.30;84.30
14401;DHT22;7285;50.894;5.462;2022-12-19T14:59:23;10.20;99.90
14401;DHT22;7285;50.894;5.462;2022-12-19T15:01:55;10.20;64.40
14401;DHT22;7285;50.894;5.462;2022-12-19T15:04:26;10.20;79.60
14401;DHT22;7285;50.894;5.462;2022-12-19T15:06:56;10.20;94.70
14401;DHT22;7285;50.894;5.462;2022-12-19T15:09:24;10.10;81.10
14401;DHT22;7285;50.894;5.462;2022-12-19T15:11:54;10.20;79.30
14401;DHT22;7285;50.894;5.462;2022-12-19T15:14:43;10.10;83.20
14401;DHT22;7285;50.894;5.462;2022-12-19T15:17:17;10.10;89.50
14401;DHT22;7285;50.894;5.462;2022-12-19T15:19:44;10.00;97.40
14401;DHT22;7285;50.894;5.462;2022-12-19T15:22:11;10.00;99.90
14401;DHT22;7285;50.894;5.462;2022-12-19T15:24:38;9.90;99.90
14401;DHT22;7285;50.894;5.462;2022-12-19T15:27:11;10.00;99.90
14401;DHT22;7285;50.894;5.462;2022-12-19T15:29:42;9.90;99.90
14401;DHT22;7285;50.894;5.462;2022-12-19T15:32:12;9.90;99.90
14401;DHT22;7285;50.894;5.462;2022-12-19T15:34:43;10.00;99.90
14401;DHT22;7285;50.894;5.462;2022-12-19T15:37:11;10.00;99.90
14401;DHT22;7285;50.894;5.462;2022-12-19T15:39:38;10.00;99.90
14401;DHT22;7285;50.894;5.462;2022-12-19T15:42:14;10.20;92.50
14401;DHT22;7285;50.894;5.462;2022-12-19T15:44:45;10.10;91.10
14401;DHT22;7285;50.894;5.462;2022-12-19T15:47:17;10.10;99.90
14401;DHT22;7285;50.894;5.462;2022-12-19T15:49:45;10.00;99.90
14401;DHT22;7285;50.894;5.462;2022-12-19T15:52:15;10.00;99.90
14401;DHT22;7285;50.894;5.462;2022-12-19T15:54:42;9.90;99.90
14401;DHT22;7285;50.894;5.462;2022-12-19T15:57:18;9.80;99.90
14401;DHT22;7285;50.894;5.462;2022-12-19T15:59:47;9.80;99.90
14401;DHT22;7285;50.894;5.462;2022-12-19T16:02:16;9.80;99.90
14401;DHT22;7285;50.894;5.462;2022-12-19T16:04:44;9.80;99.90
14401;DHT22;7285;50.894;5.462;2022-12-19T16:07:14;9.80;99.90
14401;DHT22;7285;50.894;5.462;2022-12-19T16:09:42;9.80;99.90
14401;DHT22;7285;50.894;5.462;2022-12-19T16:12:13;9.70;99.90
14401;DHT22;7285;50.894;5.462;2022-12-19T16:14:41;9.60;99.90
14401;DHT22;7285;50.894;5.462;2022-12-19T16:17:14;9.50;99.90
14401;DHT22;7285;50.894;5.462;2022-12-19T16:19:43;9.50;99.90
14401;DHT22;7285;50.894;5.462;2022-12-19T16:22:16;9.60;99.90
14401;DHT22;7285;50.894;5.462;2022-12-19T16:24:44;9.50;99.90
14401;DHT22;7285;50.894;5.462;2022-12-19T16:27:18;9.70;99.90
14401;DHT22;7285;50.894;5.462;2022-12-19T16:29:46;9.60;99.90
14401;DHT22;7285;50.894;5.462;2022-12-19T16:32:16;9.60;99.90
14401;DHT22;7285;50.894;5.462;2022-12-19T16:34:43;9.90;99.90
14401;DHT22;7285;50.894;5.462;2022-12-19T16:37:10;9.90;99.90
14401;DHT22;7285;50.894;5.462;2022-12-19T16:39:37;9.90;99.90
14401;DHT22;7285;50.894;5.462;2022-12-19T16:42:12;9.90;99.90
14401;DHT22;7285;50.894;5.462;2022-12-19T16:44:39;10.00;99.90